createdAt,value
2018-07-16T00:00:52.474Z,8.13
2018-07-16T00:03:56.082Z,8.80
2018-07-16T00:06:59.701Z,8.23
2018-07-16T00:10:03.372Z,9.33
2018-07-16T00:13:07.015Z,8.60
2018-07-16T00:16:10.622Z,9.77
2018-07-16T00:19:14.833Z,8.77
2018-07-16T00:22:18.475Z,9.57
2018-07-16T00:25:22.101Z,9.70
2018-07-16T00:28:25.720Z,8.63
2018-07-16T00:31:29.179Z,8.97
2018-07-16T00:34:32.955Z,9.17
2018-07-16T00:37:36.581Z,9.40
2018-07-16T00:40:40.193Z,9.10
2018-07-16T00:43:43.831Z,9.10
2018-07-16T00:46:47.728Z,9.57
2018-07-16T00:49:51.390Z,9.67
2018-07-16T00:52:55.662Z,9.53
2018-07-16T00:55:59.283Z,9.17
2018-07-16T00:59:02.911Z,9.57
2018-07-16T01:02:06.606Z,10.17
2018-07-16T01:05:10.227Z,9.50
2018-07-16T01:08:13.866Z,9.73
2018-07-16T01:11:17.522Z,10.07
2018-07-16T01:14:21.061Z,9.60
2018-07-16T01:17:24.687Z,10.00
2018-07-16T01:20:28.141Z,9.47
2018-07-16T01:23:31.708Z,9.70
2018-07-16T01:26:35.341Z,9.90
2018-07-16T01:29:38.984Z,10.47
2018-07-16T01:32:42.630Z,9.77
2018-07-16T01:35:46.227Z,10.17
2018-07-16T01:38:49.859Z,9.67
2018-07-16T01:41:53.474Z,9.80
2018-07-16T01:44:57.101Z,10.23
2018-07-16T01:48:01.514Z,10.37
2018-07-16T01:51:04.968Z,9.77
2018-07-16T01:54:08.482Z,9.63
2018-07-16T01:57:12.121Z,9.70
2018-07-16T02:00:16.893Z,11.67
2018-07-16T02:03:20.718Z,10.47
2018-07-16T02:06:24.365Z,9.60
2018-07-16T02:09:28.004Z,10.30
2018-07-16T02:12:31.639Z,10.27
2018-07-16T02:15:35.267Z,10.00
2018-07-16T02:18:38.903Z,9.67
2018-07-16T02:21:42.522Z,10.47
2018-07-16T02:24:46.194Z,9.60
2018-07-16T02:27:49.828Z,10.67
2018-07-16T02:30:53.473Z,11.00
2018-07-16T02:33:56.910Z,10.53
2018-07-16T02:37:00.464Z,10.80
2018-07-16T02:40:04.102Z,11.27
2018-07-16T02:43:07.663Z,10.80
2018-07-16T02:46:11.090Z,10.90
2018-07-16T02:49:14.647Z,11.00
2018-07-16T02:52:18.267Z,10.70
2018-07-16T02:55:21.774Z,11.03
2018-07-16T02:58:25.269Z,10.97
2018-07-16T03:01:28.730Z,10.83
2018-07-16T03:04:32.262Z,10.93
2018-07-16T03:07:35.899Z,10.70
2018-07-16T03:10:39.537Z,11.30
2018-07-16T03:13:43.163Z,10.60
2018-07-16T03:16:46.785Z,10.93
2018-07-16T03:19:50.431Z,11.77
2018-07-16T03:22:54.072Z,11.57
2018-07-16T03:25:57.942Z,11.33
2018-07-16T03:29:01.725Z,11.30
2018-07-16T03:32:05.644Z,11.73
2018-07-16T03:35:09.299Z,11.23
2018-07-16T03:38:12.929Z,12.07
2018-07-16T03:41:16.646Z,12.57
2018-07-16T03:44:20.583Z,11.63
2018-07-16T03:47:24.226Z,10.30
2018-07-16T03:50:27.876Z,10.37
2018-07-16T03:53:31.541Z,10.23
2018-07-16T03:56:35.224Z,11.05
2018-07-16T03:59:38.858Z,8.90
2018-07-16T04:02:42.484Z,8.80
2018-07-16T04:05:46.121Z,8.55
2018-07-16T04:08:49.779Z,9.00
2018-07-16T04:11:53.625Z,9.15
2018-07-16T04:14:57.230Z,8.60
2018-07-16T04:18:00.861Z,7.95
2018-07-16T04:21:04.285Z,8.60
2018-07-16T04:24:07.941Z,9.20
2018-07-16T04:27:11.910Z,9.23
2018-07-16T04:30:15.547Z,8.85
2018-07-16T04:33:19.209Z,9.48
2018-07-16T04:36:22.846Z,9.98
2018-07-16T04:39:26.477Z,9.60
2018-07-16T04:42:29.916Z,8.40
2018-07-16T04:45:33.480Z,9.33
2018-07-16T04:48:37.111Z,7.90
2018-07-16T04:51:40.719Z,8.65
2018-07-16T04:54:44.379Z,8.98
2018-07-16T04:57:47.817Z,8.90
2018-07-16T05:00:51.370Z,8.98
2018-07-16T05:03:54.987Z,8.95
2018-07-16T05:06:58.641Z,8.75
2018-07-16T05:10:02.277Z,7.95
2018-07-16T05:13:06.386Z,8.18
2018-07-16T05:16:10.044Z,7.55
2018-07-16T05:19:13.694Z,7.97
2018-07-16T05:22:17.312Z,7.62
2018-07-16T05:25:20.777Z,7.30
2018-07-16T05:28:24.294Z,7.00
2018-07-16T05:31:27.976Z,6.97
2018-07-16T05:34:31.662Z,6.55
2018-07-16T05:37:35.308Z,6.33
2018-07-16T05:40:39.020Z,6.60
2018-07-16T05:43:42.659Z,6.53
2018-07-16T05:46:46.270Z,6.75
2018-07-16T05:49:49.911Z,6.78
2018-07-16T05:52:53.555Z,6.00
2018-07-16T05:55:57.198Z,5.87
2018-07-16T05:59:00.833Z,6.50
2018-07-16T06:02:04.655Z,6.42
2018-07-16T06:10:31.384Z,6.50
2018-07-16T06:13:35.118Z,6.70
2018-07-16T06:16:38.806Z,6.25
2018-07-16T06:19:42.425Z,6.78
2018-07-16T06:22:46.046Z,6.65
2018-07-16T06:25:49.832Z,6.92
2018-07-16T06:28:53.470Z,6.70
2018-07-16T06:31:56.882Z,6.90
2018-07-16T06:35:00.487Z,6.90
2018-07-16T06:38:04.201Z,6.60
2018-07-16T06:41:08.010Z,7.10
2018-07-16T06:44:11.505Z,7.55
2018-07-16T06:47:15.123Z,7.60
2018-07-16T06:50:18.805Z,7.72
2018-07-16T06:53:22.421Z,6.70
2018-07-16T06:56:26.066Z,7.92
2018-07-16T06:59:30.007Z,7.65
2018-07-16T07:02:33.717Z,7.10
2018-07-16T07:05:40.395Z,7.35
2018-07-16T07:08:44.053Z,7.65
2018-07-16T07:11:47.679Z,6.83
2018-07-16T07:14:51.318Z,7.15
2018-07-16T07:17:54.934Z,6.72
2018-07-16T07:20:58.569Z,7.55
2018-07-16T07:24:02.258Z,6.55
2018-07-16T07:27:05.863Z,6.70
2018-07-16T07:30:09.551Z,6.08
2018-07-16T07:33:13.035Z,6.05
2018-07-16T07:36:16.563Z,5.87
2018-07-16T07:39:20.005Z,5.97
2018-07-16T07:42:23.531Z,10.88
2018-07-16T07:45:27.219Z,7.17
2018-07-16T07:48:30.860Z,7.00
2018-07-16T07:51:34.459Z,7.95
2018-07-16T07:54:38.134Z,6.55
2018-07-16T07:57:41.488Z,7.50
2018-07-16T08:00:45.095Z,7.22
2018-07-16T08:03:48.745Z,7.80
2018-07-16T08:06:57.655Z,7.03
2018-07-16T08:10:01.293Z,6.97
2018-07-16T08:13:04.825Z,6.87
2018-07-16T08:16:08.387Z,6.97
2018-07-16T08:19:11.822Z,6.53
2018-07-16T08:22:15.382Z,7.03
2018-07-16T08:25:18.834Z,6.65
2018-07-16T08:28:22.390Z,6.33
2018-07-16T08:31:26.057Z,6.05
2018-07-16T08:34:29.798Z,6.35
2018-07-16T08:37:33.451Z,6.45
2018-07-16T08:40:37.076Z,6.22
2018-07-16T08:43:40.807Z,5.75
2018-07-16T08:46:44.415Z,6.35
2018-07-16T08:49:48.112Z,5.00
2018-07-16T08:52:51.894Z,5.35
2018-07-16T08:55:56.061Z,4.85
2018-07-16T08:59:00.151Z,4.00
2018-07-16T09:02:03.849Z,5.30
2018-07-16T09:05:07.610Z,5.12
2018-07-16T09:08:11.104Z,7.10
2018-07-16T09:11:14.860Z,5.12
2018-07-16T09:14:19.144Z,4.97
2018-07-16T09:17:22.767Z,5.25
2018-07-16T09:20:26.193Z,4.72
2018-07-16T09:23:29.770Z,4.33
2018-07-16T09:26:33.630Z,4.60
2018-07-16T09:29:37.476Z,4.40
2018-07-16T09:32:41.137Z,4.42
2018-07-16T09:35:44.767Z,3.90
2018-07-16T09:38:48.430Z,4.90
2018-07-16T09:41:52.088Z,4.80
2018-07-16T09:44:55.699Z,4.60
2018-07-16T09:47:59.271Z,5.10
2018-07-16T09:51:02.835Z,6.33
2018-07-16T09:54:06.918Z,5.10
2018-07-16T09:57:10.507Z,3.77
2018-07-16T10:00:19.104Z,4.65
2018-07-16T10:03:23.163Z,4.62
2018-07-16T10:06:26.788Z,4.62
2018-07-16T10:09:30.397Z,5.20
2018-07-16T10:12:34.216Z,4.30
2018-07-16T10:15:37.826Z,4.12
2018-07-16T10:18:41.771Z,4.70
2018-07-16T10:21:45.479Z,5.03
2018-07-16T10:24:49.080Z,3.83
2018-07-16T10:27:52.505Z,3.75
2018-07-16T10:30:56.033Z,3.95
2018-07-16T10:33:59.850Z,4.90
2018-07-16T10:37:03.425Z,4.33
2018-07-16T10:40:07.022Z,4.83
2018-07-16T10:43:10.653Z,4.22
2018-07-16T10:46:14.338Z,4.58
2018-07-16T10:49:18.007Z,4.90
2018-07-16T10:52:21.621Z,4.92
2018-07-16T10:55:25.254Z,4.47
2018-07-16T10:58:28.862Z,5.20
2018-07-16T11:01:32.483Z,4.47
2018-07-16T11:04:36.716Z,5.17
2018-07-16T11:07:40.155Z,6.78
2018-07-16T11:10:43.683Z,4.35
2018-07-16T11:13:47.331Z,4.92
2018-07-16T11:16:50.935Z,5.10
2018-07-16T11:19:54.620Z,4.95
2018-07-16T11:22:58.202Z,4.75
2018-07-16T11:26:01.925Z,4.97
2018-07-16T11:29:05.619Z,4.83
2018-07-16T11:32:09.283Z,5.12
2018-07-16T11:35:12.879Z,4.50
2018-07-16T11:38:16.707Z,4.60
2018-07-16T11:41:20.355Z,5.05
2018-07-16T11:44:24.043Z,5.25
2018-07-16T11:47:27.817Z,5.22
2018-07-16T11:50:31.360Z,5.37
2018-07-16T11:53:34.982Z,4.78
2018-07-16T11:56:38.739Z,5.15
2018-07-16T11:59:42.389Z,4.70
2018-07-16T12:02:46.313Z,4.80
2018-07-16T12:05:49.957Z,4.60
2018-07-16T12:08:54.990Z,4.53
2018-07-16T12:11:59.230Z,4.60
2018-07-16T12:15:03.038Z,4.03
2018-07-16T12:18:06.578Z,4.22
2018-07-16T12:21:10.223Z,3.77
2018-07-16T12:24:13.665Z,4.22
2018-07-16T12:27:17.219Z,3.98
2018-07-16T12:30:20.838Z,3.72
2018-07-16T12:33:24.297Z,3.60
2018-07-16T12:36:27.816Z,3.90
2018-07-16T12:39:31.485Z,3.17
2018-07-16T12:42:35.095Z,4.05
2018-07-16T12:45:38.760Z,4.20
2018-07-16T12:48:42.380Z,4.30
2018-07-16T12:51:46.009Z,4.15
2018-07-16T12:54:49.636Z,3.80
2018-07-16T12:57:53.289Z,4.22
2018-07-16T13:00:56.879Z,3.85
2018-07-16T13:04:00.524Z,4.25
2018-07-16T13:07:04.365Z,3.67
2018-07-16T13:10:07.986Z,4.17
2018-07-16T13:13:11.670Z,3.65
2018-07-16T13:16:15.274Z,3.92
2018-07-16T13:19:19.007Z,3.77
2018-07-16T13:22:22.641Z,3.90
2018-07-16T13:25:26.275Z,4.75
2018-07-16T13:28:29.928Z,3.70
2018-07-16T13:31:33.548Z,3.20
2018-07-16T13:34:37.257Z,3.60
2018-07-16T13:37:40.895Z,3.40
2018-07-16T13:40:44.641Z,3.30
2018-07-16T13:43:48.192Z,3.37
2018-07-16T13:46:51.935Z,3.58
2018-07-16T13:49:55.493Z,3.72
2018-07-16T13:52:58.935Z,3.47
2018-07-16T13:56:02.651Z,4.00
2018-07-16T13:59:06.615Z,3.33
2018-07-16T14:02:10.104Z,3.47
2018-07-16T14:05:13.460Z,3.40
2018-07-16T14:08:16.979Z,3.33
2018-07-16T14:11:20.614Z,8.05
2018-07-16T14:14:24.310Z,3.98
2018-07-16T14:17:27.945Z,3.65
2018-07-16T14:20:31.583Z,3.37
2018-07-16T14:23:35.322Z,4.53
2018-07-16T14:26:38.838Z,4.10
2018-07-16T14:29:42.478Z,3.35
2018-07-16T14:32:46.138Z,3.70
2018-07-16T14:35:49.781Z,3.22
2018-07-16T14:38:53.390Z,3.30
2018-07-16T14:41:57.135Z,3.50
2018-07-16T14:45:00.797Z,3.60
2018-07-16T14:48:04.217Z,3.52
2018-07-16T14:51:07.761Z,3.22
2018-07-16T14:54:11.407Z,3.50
2018-07-16T14:57:15.031Z,4.40
2018-07-16T15:00:19.545Z,3.85
2018-07-16T15:03:23.238Z,3.70
2018-07-16T15:06:26.880Z,3.85
2018-07-16T15:09:30.577Z,3.80
2018-07-16T15:12:34.446Z,3.42
2018-07-16T15:15:38.092Z,3.52
2018-07-16T15:18:41.580Z,3.60
2018-07-16T15:21:45.190Z,3.70
2018-07-16T15:24:48.766Z,3.52
2018-07-16T15:27:52.609Z,3.90
2018-07-16T15:30:56.255Z,3.55
2018-07-16T15:33:59.950Z,3.98
2018-07-16T15:37:03.578Z,3.67
2018-07-16T15:40:07.238Z,3.83
2018-07-16T15:43:10.852Z,4.30
2018-07-16T15:46:14.501Z,4.22
2018-07-16T15:49:18.311Z,4.15
2018-07-16T15:52:22.020Z,3.55
2018-07-16T15:55:25.627Z,4.33
2018-07-16T15:58:29.320Z,4.20
2018-07-16T16:01:32.914Z,3.90
2018-07-16T16:04:36.378Z,4.15
2018-07-16T16:07:39.977Z,4.65
2018-07-16T16:10:43.613Z,7.78
2018-07-16T16:13:47.236Z,7.33
2018-07-16T16:16:50.864Z,5.58
2018-07-16T16:19:54.710Z,4.50
2018-07-16T16:22:58.332Z,3.92
2018-07-16T16:26:01.819Z,4.45
2018-07-16T16:29:05.157Z,4.35
2018-07-16T16:32:08.986Z,3.77
2018-07-16T16:35:12.602Z,3.50
2018-07-16T16:38:16.247Z,3.60
2018-07-16T16:41:20.118Z,4.10
2018-07-16T16:44:23.670Z,3.50
2018-07-16T16:47:27.421Z,3.80
2018-07-16T16:50:31.167Z,3.70
2018-07-16T16:53:34.778Z,4.42
2018-07-16T16:56:38.280Z,3.92
2018-07-16T16:59:41.658Z,3.77
2018-07-16T17:02:45.195Z,3.33
2018-07-16T17:05:48.824Z,3.27
2018-07-16T17:08:52.474Z,3.10
2018-07-16T17:11:56.209Z,2.85
2018-07-16T17:14:59.785Z,3.40
2018-07-16T17:18:03.680Z,2.87
2018-07-16T17:21:07.286Z,3.10
2018-07-16T17:24:10.931Z,3.30
2018-07-16T17:27:14.842Z,3.00
2018-07-16T17:30:18.465Z,3.77
2018-07-16T17:33:22.072Z,3.67
2018-07-16T17:36:25.727Z,3.35
2018-07-16T17:39:29.375Z,2.85
2018-07-16T17:42:33.015Z,3.33
2018-07-16T17:45:36.658Z,3.08
2018-07-16T17:48:40.348Z,3.25
2018-07-16T17:51:44.036Z,3.12
2018-07-16T17:54:47.816Z,3.25
2018-07-16T17:57:51.645Z,3.50
2018-07-16T18:00:55.345Z,3.12
2018-07-16T18:03:58.987Z,3.37
2018-07-16T18:07:02.599Z,3.37
2018-07-16T18:10:06.262Z,3.95
2018-07-16T18:13:09.905Z,3.70
2018-07-16T18:16:13.519Z,3.80
2018-07-16T18:19:17.346Z,4.30
2018-07-16T18:22:20.953Z,3.77
2018-07-16T18:25:24.604Z,3.92
2018-07-16T18:28:28.334Z,4.00
2018-07-16T18:31:31.918Z,3.85
2018-07-16T18:34:35.762Z,4.00
2018-07-16T18:37:39.425Z,3.52
2018-07-16T18:40:43.022Z,4.20
2018-07-16T18:43:46.639Z,4.50
2018-07-16T18:46:50.257Z,4.05
2018-07-16T18:49:53.867Z,4.40
2018-07-16T18:52:57.689Z,4.22
2018-07-16T18:56:01.410Z,4.75
2018-07-16T18:59:05.185Z,4.12
2018-07-16T19:02:08.618Z,4.58
2018-07-16T19:05:12.179Z,4.45
2018-07-16T19:08:15.685Z,4.50
2018-07-16T19:11:19.233Z,4.45
2018-07-16T19:14:22.957Z,4.30
2018-07-16T19:17:26.662Z,4.40
2018-07-16T19:20:30.368Z,4.92
2018-07-16T19:23:34.010Z,5.15
2018-07-16T19:26:37.640Z,4.87
2018-07-16T19:29:41.311Z,4.30
2018-07-16T19:32:45.081Z,4.50
2018-07-16T19:35:48.637Z,4.83
2018-07-16T19:38:52.330Z,4.72
2018-07-16T19:41:55.889Z,4.62
2018-07-16T19:44:59.737Z,4.35
2018-07-16T19:48:03.410Z,4.80
2018-07-16T19:51:07.130Z,4.85
2018-07-16T19:54:10.751Z,4.80
2018-07-16T19:57:14.421Z,4.95
2018-07-16T20:00:18.470Z,4.72
2018-07-16T20:03:21.929Z,4.08
2018-07-16T20:06:25.912Z,3.80
2018-07-16T20:09:29.645Z,4.00
2018-07-16T20:12:34.565Z,4.40
2018-07-16T20:15:38.321Z,3.70
2018-07-16T20:18:42.004Z,4.33
2018-07-16T20:21:45.420Z,4.37
2018-07-16T20:24:48.992Z,4.78
2018-07-16T20:27:52.657Z,4.67
2018-07-16T20:30:56.291Z,4.10
2018-07-16T20:33:59.943Z,4.28
2018-07-16T20:37:03.564Z,4.50
2018-07-16T20:40:07.213Z,4.87
2018-07-16T20:43:10.971Z,4.50
2018-07-16T20:46:14.853Z,4.78
2018-07-16T20:49:18.524Z,5.37
2018-07-16T20:52:22.147Z,6.30
2018-07-16T20:55:25.865Z,5.13
2018-07-16T20:58:29.521Z,4.70
2018-07-16T21:01:33.139Z,4.67
2018-07-16T21:04:36.821Z,4.60
2018-07-16T21:07:40.568Z,5.23
2018-07-16T21:10:44.117Z,12.00
2018-07-16T21:13:47.826Z,7.77
2018-07-16T21:16:51.447Z,5.60
2018-07-16T21:19:55.148Z,5.93
2018-07-16T21:22:58.755Z,6.87
2018-07-16T21:26:02.399Z,6.23
2018-07-16T21:29:06.127Z,5.63
2018-07-16T21:32:09.868Z,4.83
2018-07-16T21:35:13.498Z,5.07
2018-07-16T21:38:17.152Z,5.80
2018-07-16T21:41:20.772Z,9.13
2018-07-16T21:44:24.331Z,10.07
2018-07-16T21:47:27.879Z,6.17
2018-07-16T21:50:31.506Z,6.03
2018-07-16T21:53:35.304Z,7.13
2018-07-16T21:56:38.936Z,8.00
2018-07-16T21:59:42.542Z,6.57
2018-07-16T22:02:46.181Z,6.30
2018-07-16T22:05:49.812Z,7.07
2018-07-16T22:08:53.519Z,6.97
2018-07-16T22:11:57.143Z,7.77
2018-07-16T22:15:00.774Z,8.03
2018-07-16T22:18:04.407Z,8.20
2018-07-16T22:21:08.075Z,8.10
2018-07-16T22:24:11.625Z,9.97
2018-07-16T22:27:15.258Z,9.10
2018-07-16T22:30:18.906Z,10.93
2018-07-16T22:33:22.538Z,8.73
2018-07-16T22:36:26.263Z,6.80
2018-07-16T22:39:29.898Z,7.30
2018-07-16T22:42:33.506Z,7.80
2018-07-16T22:45:37.158Z,8.13
2018-07-16T22:48:40.774Z,12.23
2018-07-16T22:51:44.432Z,9.30
2018-07-16T22:54:48.035Z,9.10
2018-07-16T22:57:51.503Z,7.70
2018-07-16T23:00:55.058Z,8.67
2018-07-16T23:03:58.841Z,8.50
2018-07-16T23:07:02.474Z,9.97
2018-07-16T23:10:06.178Z,7.73
2018-07-16T23:13:09.839Z,6.93
2018-07-16T23:19:23.542Z,17.53
2018-07-16T23:22:27.175Z,8.07
2018-07-16T23:25:30.789Z,8.17
2018-07-16T23:28:35.190Z,8.40
2018-07-16T23:31:38.829Z,8.03
2018-07-16T23:34:42.297Z,7.70
2018-07-16T23:37:46.097Z,11.00
2018-07-16T23:40:49.780Z,9.70
2018-07-16T23:43:53.535Z,8.43
2018-07-16T23:46:57.258Z,9.50
2018-07-16T23:50:00.889Z,7.73
2018-07-16T23:53:04.289Z,7.57
2018-07-16T23:56:07.809Z,7.33
2018-07-16T23:59:11.489Z,6.97
